sensor_id;sensor_type;location;lat;lon;timestamp;temperature;humidity
2100;DHT22;1055;48.854;9.302;2022-08-11T00:01:23;20.70;65.80
2100;DHT22;1055;48.854;9.302;2022-08-11T00:04:02;20.50;66.90
2100;DHT22;1055;48.854;9.302;2022-08-11T00:06:31;20.50;67.10
2100;DHT22;1055;48.854;9.302;2022-08-11T00:09:00;20.60;66.90
2100;DHT22;1055;48.854;9.302;2022-08-11T00:11:53;20.30;67.20
2100;DHT22;1055;48.854;9.302;2022-08-11T00:14:27;20.50;68.70
2100;DHT22;1055;48.854;9.302;2022-08-11T00:16:55;20.40;67.80
2100;DHT22;1055;48.854;9.302;2022-08-11T00:19:25;20.50;67.80
2100;DHT22;1055;48.854;9.302;2022-08-11T00:21:52;20.40;68.40
2100;DHT22;1055;48.854;9.302;2022-08-11T00:24:19;20.10;69.90
2100;DHT22;1055;48.854;9.302;2022-08-11T00:26:50;20.20;69.90
2100;DHT22;1055;48.854;9.302;2022-08-11T00:29:17;20.20;70.00
2100;DHT22;1055;48.854;9.302;2022-08-11T00:31:54;20.10;70.00
2100;DHT22;1055;48.854;9.302;2022-08-11T00:34:26;19.90;71.90
2100;DHT22;1055;48.854;9.302;2022-08-11T00:36:54;19.80;72.50
2100;DHT22;1055;48.854;9.302;2022-08-11T00:39:23;19.90;72.00
2100;DHT22;1055;48.854;9.302;2022-08-11T00:45:22;19.70;72.60
2100;DHT22;1055;48.854;9.302;2022-08-11T01:07:28;19.30;73.90
2100;DHT22;1055;48.854;9.302;2022-08-11T01:10:18;19.20;72.60
2100;DHT22;1055;48.854;9.302;2022-08-11T01:13:24;19.30;72.20
2100;DHT22;1055;48.854;9.302;2022-08-11T01:33:01;19.30;74.40
2100;DHT22;1055;48.854;9.302;2022-08-11T01:41:29;19.20;76.60
2100;DHT22;1055;48.854;9.302;2022-08-11T01:52:47;18.70;80.50
2100;DHT22;1055;48.854;9.302;2022-08-11T01:58:25;18.90;79.30
2100;DHT22;1055;48.854;9.302;2022-08-11T02:07:04;18.40;79.70
2100;DHT22;1055;48.854;9.302;2022-08-11T02:12:52;18.50;81.10
2100;DHT22;1055;48.854;9.302;2022-08-11T02:23:51;18.40;86.90
2100;DHT22;1055;48.854;9.302;2022-08-11T02:26:24;18.20;88.60
2100;DHT22;1055;48.854;9.302;2022-08-11T02:29:15;18.30;90.40
2100;DHT22;1055;48.854;9.302;2022-08-11T02:42:29;18.40;90.30
2100;DHT22;1055;48.854;9.302;2022-08-11T02:48:49;18.50;88.40
2100;DHT22;1055;48.854;9.302;2022-08-11T02:54:15;18.50;89.50
2100;DHT22;1055;48.854;9.302;2022-08-11T02:56:58;18.50;89.40
2100;DHT22;1055;48.854;9.302;2022-08-11T03:05:03;18.50;90.00
2100;DHT22;1055;48.854;9.302;2022-08-11T03:08:04;18.50;89.40
2100;DHT22;1055;48.854;9.302;2022-08-11T03:13:21;18.50;89.10
2100;DHT22;1055;48.854;9.302;2022-08-11T03:19:40;18.40;91.30
2100;DHT22;1055;48.854;9.302;2022-08-11T03:31:29;18.10;92.50
2100;DHT22;1055;48.854;9.302;2022-08-11T03:33:45;18.00;91.70
2100;DHT22;1055;48.854;9.302;2022-08-11T03:39:41;17.40;96.60
2100;DHT22;1055;48.854;9.302;2022-08-11T03:42:48;16.90;98.30
2100;DHT22;1055;48.854;9.302;2022-08-11T03:45:35;16.70;99.90
2100;DHT22;1055;48.854;9.302;2022-08-11T03:51:17;16.70;99.90
2100;DHT22;1055;48.854;9.302;2022-08-11T03:54:02;16.70;99.90
2100;DHT22;1055;48.854;9.302;2022-08-11T04:01:47;17.30;99.90
2100;DHT22;1055;48.854;9.302;2022-08-11T04:07:41;17.60;99.90
2100;DHT22;1055;48.854;9.302;2022-08-11T04:35:22;18.60;98.00
2100;DHT22;1055;48.854;9.302;2022-08-11T04:46:26;18.80;97.10
2100;DHT22;1055;48.854;9.302;2022-08-11T04:49:21;18.90;96.80
2100;DHT22;1055;48.854;9.302;2022-08-11T05:02:25;18.70;96.90
2100;DHT22;1055;48.854;9.302;2022-08-11T05:13:33;18.50;96.40
2100;DHT22;1055;48.854;9.302;2022-08-11T05:16:27;18.40;97.20
2100;DHT22;1055;48.854;9.302;2022-08-11T05:19:17;18.30;97.30
2100;DHT22;1055;48.854;9.302;2022-08-11T05:22:07;18.40;98.40
2100;DHT22;1055;48.854;9.302;2022-08-11T05:28:14;19.00;98.50
2100;DHT22;1055;48.854;9.302;2022-08-11T05:31:03;19.10;97.10
2100;DHT22;1055;48.854;9.302;2022-08-11T05:33:51;19.00;97.70
2100;DHT22;1055;48.854;9.302;2022-08-11T05:36:51;19.20;99.50
2100;DHT22;1055;48.854;9.302;2022-08-11T05:39:23;19.30;99.90
2100;DHT22;1055;48.854;9.302;2022-08-11T05:42:08;19.50;99.70
2100;DHT22;1055;48.854;9.302;2022-08-11T05:45:04;19.60;99.80
2100;DHT22;1055;48.854;9.302;2022-08-11T05:47:53;19.70;99.20
2100;DHT22;1055;48.854;9.302;2022-08-11T05:50:38;19.70;99.00
2100;DHT22;1055;48.854;9.302;2022-08-11T05:53:24;19.80;98.70
2100;DHT22;1055;48.854;9.302;2022-08-11T05:56:09;19.90;98.50
2100;DHT22;1055;48.854;9.302;2022-08-11T05:58:52;19.90;98.00
2100;DHT22;1055;48.854;9.302;2022-08-11T06:01:24;19.80;98.20
2100;DHT22;1055;48.854;9.302;2022-08-11T06:03:53;19.90;97.80
2100;DHT22;1055;48.854;9.302;2022-08-11T06:06:56;20.00;97.60
2100;DHT22;1055;48.854;9.302;2022-08-11T06:09:37;20.10;96.30
2100;DHT22;1055;48.854;9.302;2022-08-11T06:12:07;20.00;95.90
2100;DHT22;1055;48.854;9.302;2022-08-11T06:14:34;20.20;95.60
2100;DHT22;1055;48.854;9.302;2022-08-11T06:17:05;20.30;94.60
2100;DHT22;1055;48.854;9.302;2022-08-11T06:19:39;20.40;94.20
2100;DHT22;1055;48.854;9.302;2022-08-11T06:22:07;20.50;94.20
2100;DHT22;1055;48.854;9.302;2022-08-11T06:24:36;20.40;93.90
2100;DHT22;1055;48.854;9.302;2022-08-11T06:27:03;20.50;94.30
2100;DHT22;1055;48.854;9.302;2022-08-11T06:29:32;20.60;93.60
2100;DHT22;1055;48.854;9.302;2022-08-11T06:32:00;20.60;92.90
2100;DHT22;1055;48.854;9.302;2022-08-11T06:47:51;20.60;93.90
2100;DHT22;1055;48.854;9.302;2022-08-11T06:50:19;20.80;93.50
2100;DHT22;1055;48.854;9.302;2022-08-11T06:53:06;20.90;93.00
2100;DHT22;1055;48.854;9.302;2022-08-11T06:55:35;21.10;92.30
2100;DHT22;1055;48.854;9.302;2022-08-11T06:58:24;21.10;92.10
2100;DHT22;1055;48.854;9.302;2022-08-11T07:01:11;20.90;92.60
2100;DHT22;1055;48.854;9.302;2022-08-11T07:03:51;21.00;92.60
2100;DHT22;1055;48.854;9.302;2022-08-11T07:12:36;21.20;92.10
2100;DHT22;1055;48.854;9.302;2022-08-11T07:15:27;21.40;91.40
2100;DHT22;1055;48.854;9.302;2022-08-11T07:18:10;21.40;90.80
2100;DHT22;1055;48.854;9.302;2022-08-11T07:21:06;21.50;90.60
2100;DHT22;1055;48.854;9.302;2022-08-11T07:23:53;21.50;91.00
2100;DHT22;1055;48.854;9.302;2022-08-11T07:26:42;21.60;91.00
2100;DHT22;1055;48.854;9.302;2022-08-11T07:29:30;21.60;90.10
2100;DHT22;1055;48.854;9.302;2022-08-11T07:31:57;21.70;90.30
2100;DHT22;1055;48.854;9.302;2022-08-11T07:34:33;21.70;90.30
2100;DHT22;1055;48.854;9.302;2022-08-11T07:37:04;21.80;90.10
2100;DHT22;1055;48.854;9.302;2022-08-11T07:39:35;21.80;89.20
2100;DHT22;1055;48.854;9.302;2022-08-11T07:42:14;22.20;88.60
2100;DHT22;1055;48.854;9.302;2022-08-11T07:44:42;22.30;87.30
2100;DHT22;1055;48.854;9.302;2022-08-11T07:47:27;22.40;86.30
2100;DHT22;1055;48.854;9.302;2022-08-11T07:50:12;22.30;86.50
2100;DHT22;1055;48.854;9.302;2022-08-11T07:52:58;22.40;86.40
2100;DHT22;1055;48.854;9.302;2022-08-11T07:55:25;22.50;86.80
2100;DHT22;1055;48.854;9.302;2022-08-11T07:57:52;22.60;84.50
2100;DHT22;1055;48.854;9.302;2022-08-11T08:00:46;22.70;85.60
2100;DHT22;1055;48.854;9.302;2022-08-11T08:03:32;22.90;84.00
2100;DHT22;1055;48.854;9.302;2022-08-11T08:06:17;23.10;81.20
2100;DHT22;1055;48.854;9.302;2022-08-11T08:09:03;23.20;79.20
2100;DHT22;1055;48.854;9.302;2022-08-11T08:11:48;23.40;78.60
2100;DHT22;1055;48.854;9.302;2022-08-11T08:14:33;23.60;77.10
2100;DHT22;1055;48.854;9.302;2022-08-11T08:17:20;23.70;76.40
2100;DHT22;1055;48.854;9.302;2022-08-11T08:20:05;23.80;75.20
2100;DHT22;1055;48.854;9.302;2022-08-11T08:22:34;23.90;74.00
2100;DHT22;1055;48.854;9.302;2022-08-11T08:25:01;23.90;73.00
2100;DHT22;1055;48.854;9.302;2022-08-11T08:27:27;24.00;72.80
2100;DHT22;1055;48.854;9.302;2022-08-11T08:29:53;24.10;72.80
2100;DHT22;1055;48.854;9.302;2022-08-11T08:32:39;24.30;72.60
2100;DHT22;1055;48.854;9.302;2022-08-11T08:35:06;24.40;71.40
2100;DHT22;1055;48.854;9.302;2022-08-11T08:37:34;24.40;70.20
2100;DHT22;1055;48.854;9.302;2022-08-11T08:40:01;24.50;69.60
2100;DHT22;1055;48.854;9.302;2022-08-11T08:42:29;24.60;68.70
2100;DHT22;1055;48.854;9.302;2022-08-11T08:45:05;24.80;68.00
2100;DHT22;1055;48.854;9.302;2022-08-11T08:47:37;24.80;66.50
2100;DHT22;1055;48.854;9.302;2022-08-11T08:50:07;24.80;66.70
2100;DHT22;1055;48.854;9.302;2022-08-11T08:52:37;24.80;66.40
2100;DHT22;1055;48.854;9.302;2022-08-11T08:55:08;24.80;64.70
2100;DHT22;1055;48.854;9.302;2022-08-11T08:57:38;24.80;64.70
2100;DHT22;1055;48.854;9.302;2022-08-11T09:00:06;25.00;65.80
2100;DHT22;1055;48.854;9.302;2022-08-11T09:02:32;25.10;64.50
2100;DHT22;1055;48.854;9.302;2022-08-11T09:04:59;25.20;64.50
2100;DHT22;1055;48.854;9.302;2022-08-11T09:07:25;25.30;62.90
2100;DHT22;1055;48.854;9.302;2022-08-11T09:09:56;25.30;62.70
2100;DHT22;1055;48.854;9.302;2022-08-11T09:12:28;25.30;61.60
2100;DHT22;1055;48.854;9.302;2022-08-11T09:14:55;25.40;61.70
2100;DHT22;1055;48.854;9.302;2022-08-11T09:17:47;25.40;62.20
2100;DHT22;1055;48.854;9.302;2022-08-11T09:20:20;25.60;60.70
2100;DHT22;1055;48.854;9.302;2022-08-11T09:22:48;25.70;60.60
2100;DHT22;1055;48.854;9.302;2022-08-11T09:25:33;25.70;59.80
2100;DHT22;1055;48.854;9.302;2022-08-11T09:28:19;25.80;59.50
2100;DHT22;1055;48.854;9.302;2022-08-11T09:30:48;25.80;59.00
2100;DHT22;1055;48.854;9.302;2022-08-11T09:33:18;26.00;58.90
2100;DHT22;1055;48.854;9.302;2022-08-11T09:35:45;26.10;57.50
2100;DHT22;1055;48.854;9.302;2022-08-11T09:38:14;26.10;57.50
2100;DHT22;1055;48.854;9.302;2022-08-11T09:41:02;26.20;57.10
2100;DHT22;1055;48.854;9.302;2022-08-11T09:43:30;26.40;56.80
2100;DHT22;1055;48.854;9.302;2022-08-11T09:46:14;26.50;56.50
2100;DHT22;1055;48.854;9.302;2022-08-11T09:48:45;26.40;56.70
2100;DHT22;1055;48.854;9.302;2022-08-11T09:51:12;26.30;57.10
2100;DHT22;1055;48.854;9.302;2022-08-11T09:53:41;26.30;56.80
2100;DHT22;1055;48.854;9.302;2022-08-11T09:56:25;26.50;55.50
2100;DHT22;1055;48.854;9.302;2022-08-11T09:59:11;26.60;54.30
2100;DHT22;1055;48.854;9.302;2022-08-11T10:01:44;26.60;55.40
2100;DHT22;1055;48.854;9.302;2022-08-11T10:04:24;26.50;54.90
2100;DHT22;1055;48.854;9.302;2022-08-11T10:06:53;26.70;55.40
2100;DHT22;1055;48.854;9.302;2022-08-11T10:12:19;27.10;54.40
2100;DHT22;1055;48.854;9.302;2022-08-11T10:14:49;27.10;54.30
2100;DHT22;1055;48.854;9.302;2022-08-11T10:17:35;27.20;53.60
2100;DHT22;1055;48.854;9.302;2022-08-11T10:20:05;27.30;53.10
2100;DHT22;1055;48.854;9.302;2022-08-11T10:22:33;27.10;52.40
2100;DHT22;1055;48.854;9.302;2022-08-11T10:25:19;27.20;52.60
2100;DHT22;1055;48.854;9.302;2022-08-11T10:28:07;27.40;52.00
2100;DHT22;1055;48.854;9.302;2022-08-11T10:30:37;27.40;52.00
2100;DHT22;1055;48.854;9.302;2022-08-11T10:33:22;27.60;51.90
2100;DHT22;1055;48.854;9.302;2022-08-11T10:36:07;27.80;51.00
2100;DHT22;1055;48.854;9.302;2022-08-11T10:38:34;27.50;50.80
2100;DHT22;1055;48.854;9.302;2022-08-11T10:41:01;27.70;50.70
2100;DHT22;1055;48.854;9.302;2022-08-11T10:43:46;27.80;50.90
2100;DHT22;1055;48.854;9.302;2022-08-11T10:46:12;27.60;51.20
2100;DHT22;1055;48.854;9.302;2022-08-11T10:48:57;27.80;51.50
2100;DHT22;1055;48.854;9.302;2022-08-11T10:51:26;27.90;51.00
2100;DHT22;1055;48.854;9.302;2022-08-11T10:54:12;27.70;50.50
2100;DHT22;1055;48.854;9.302;2022-08-11T10:56:59;27.60;50.70
2100;DHT22;1055;48.854;9.302;2022-08-11T10:59:44;27.50;51.10
2100;DHT22;1055;48.854;9.302;2022-08-11T11:02:12;27.50;50.70
2100;DHT22;1055;48.854;9.302;2022-08-11T11:05:11;27.70;50.90
2100;DHT22;1055;48.854;9.302;2022-08-11T11:10:21;27.60;50.00
2100;DHT22;1055;48.854;9.302;2022-08-11T11:12:54;27.80;50.50
2100;DHT22;1055;48.854;9.302;2022-08-11T11:15:41;27.90;50.30
2100;DHT22;1055;48.854;9.302;2022-08-11T11:18:30;28.10;50.30
2100;DHT22;1055;48.854;9.302;2022-08-11T11:21:10;28.10;49.60
2100;DHT22;1055;48.854;9.302;2022-08-11T11:34:57;28.00;49.10
2100;DHT22;1055;48.854;9.302;2022-08-11T11:37:25;28.20;49.70
2100;DHT22;1055;48.854;9.302;2022-08-11T11:39:54;28.30;49.00
2100;DHT22;1055;48.854;9.302;2022-08-11T11:42:22;28.30;49.00
2100;DHT22;1055;48.854;9.302;2022-08-11T11:44:48;28.40;49.40
2100;DHT22;1055;48.854;9.302;2022-08-11T11:47:15;28.30;48.00
2100;DHT22;1055;48.854;9.302;2022-08-11T11:49:44;28.30;48.40
2100;DHT22;1055;48.854;9.302;2022-08-11T11:52:16;28.50;48.60
2100;DHT22;1055;48.854;9.302;2022-08-11T11:54:43;28.30;47.80
2100;DHT22;1055;48.854;9.302;2022-08-11T11:57:10;28.50;47.70
2100;DHT22;1055;48.854;9.302;2022-08-11T11:59:57;28.60;48.10
2100;DHT22;1055;48.854;9.302;2022-08-11T12:02:41;28.80;47.70
2100;DHT22;1055;48.854;9.302;2022-08-11T12:05:09;28.90;47.60
2100;DHT22;1055;48.854;9.302;2022-08-11T12:07:35;29.00;48.50
2100;DHT22;1055;48.854;9.302;2022-08-11T12:10:20;29.10;47.50
2100;DHT22;1055;48.854;9.302;2022-08-11T12:12:47;29.20;47.10
2100;DHT22;1055;48.854;9.302;2022-08-11T12:15:31;29.40;46.80
2100;DHT22;1055;48.854;9.302;2022-08-11T12:17:59;29.50;47.10
2100;DHT22;1055;48.854;9.302;2022-08-11T12:20:26;29.50;47.20
2100;DHT22;1055;48.854;9.302;2022-08-11T12:22:53;29.60;46.40
2100;DHT22;1055;48.854;9.302;2022-08-11T12:25:38;29.50;46.70
2100;DHT22;1055;48.854;9.302;2022-08-11T12:28:23;29.60;46.50
2100;DHT22;1055;48.854;9.302;2022-08-11T12:30:53;29.80;46.40
2100;DHT22;1055;48.854;9.302;2022-08-11T12:33:20;30.10;47.20
2100;DHT22;1055;48.854;9.302;2022-08-11T12:35:47;30.40;45.60
2100;DHT22;1055;48.854;9.302;2022-08-11T12:38:18;30.50;45.30
2100;DHT22;1055;48.854;9.302;2022-08-11T12:40:46;30.50;44.90
2100;DHT22;1055;48.854;9.302;2022-08-11T12:43:31;30.50;44.90
2100;DHT22;1055;48.854;9.302;2022-08-11T12:46:22;30.80;44.70
2100;DHT22;1055;48.854;9.302;2022-08-11T12:48:57;31.10;43.20
2100;DHT22;1055;48.854;9.302;2022-08-11T12:51:46;31.20;43.10
2100;DHT22;1055;48.854;9.302;2022-08-11T12:57:15;30.30;42.60
2100;DHT22;1055;48.854;9.302;2022-08-11T13:00:02;30.70;44.00
2100;DHT22;1055;48.854;9.302;2022-08-11T13:02:47;30.90;42.30
2100;DHT22;1055;48.854;9.302;2022-08-11T13:05:32;31.20;43.10
2100;DHT22;1055;48.854;9.302;2022-08-11T13:08:01;31.20;43.20
2100;DHT22;1055;48.854;9.302;2022-08-11T13:10:29;31.10;42.00
2100;DHT22;1055;48.854;9.302;2022-08-11T13:13:14;31.20;41.80
2100;DHT22;1055;48.854;9.302;2022-08-11T13:15:42;31.30;42.20
2100;DHT22;1055;48.854;9.302;2022-08-11T13:18:10;31.50;42.50
2100;DHT22;1055;48.854;9.302;2022-08-11T13:20:40;31.50;41.90
2100;DHT22;1055;48.854;9.302;2022-08-11T13:23:09;31.50;41.70
2100;DHT22;1055;48.854;9.302;2022-08-11T13:25:38;31.20;40.70
2100;DHT22;1055;48.854;9.302;2022-08-11T13:28:04;31.20;41.00
2100;DHT22;1055;48.854;9.302;2022-08-11T13:30:31;31.20;41.70
2100;DHT22;1055;48.854;9.302;2022-08-11T13:33:16;31.90;40.80
2100;DHT22;1055;48.854;9.302;2022-08-11T13:35:45;31.90;40.10
2100;DHT22;1055;48.854;9.302;2022-08-11T13:38:15;32.20;40.10
2100;DHT22;1055;48.854;9.302;2022-08-11T13:40:42;32.00;40.40
2100;DHT22;1055;48.854;9.302;2022-08-11T13:43:09;32.40;40.40
2100;DHT22;1055;48.854;9.302;2022-08-11T13:45:35;32.80;39.80
2100;DHT22;1055;48.854;9.302;2022-08-11T13:48:05;32.90;39.40
2100;DHT22;1055;48.854;9.302;2022-08-11T13:50:32;32.50;39.00
2100;DHT22;1055;48.854;9.302;2022-08-11T13:53:21;32.70;38.80
2100;DHT22;1055;48.854;9.302;2022-08-11T13:55:48;33.00;39.30
2100;DHT22;1055;48.854;9.302;2022-08-11T13:58:14;32.80;39.00
2100;DHT22;1055;48.854;9.302;2022-08-11T14:00:43;33.00;38.00
2100;DHT22;1055;48.854;9.302;2022-08-11T14:03:11;33.10;38.90
2100;DHT22;1055;48.854;9.302;2022-08-11T14:05:45;32.90;38.50
2100;DHT22;1055;48.854;9.302;2022-08-11T14:08:16;32.80;38.10
2100;DHT22;1055;48.854;9.302;2022-08-11T14:10:44;33.30;38.60
2100;DHT22;1055;48.854;9.302;2022-08-11T14:13:12;33.10;38.80
2100;DHT22;1055;48.854;9.302;2022-08-11T14:16:05;33.30;38.80
2100;DHT22;1055;48.854;9.302;2022-08-11T14:18:32;32.50;37.80
2100;DHT22;1055;48.854;9.302;2022-08-11T14:21:02;33.00;38.20
2100;DHT22;1055;48.854;9.302;2022-08-11T14:23:51;32.90;38.40
2100;DHT22;1055;48.854;9.302;2022-08-11T14:26:24;32.30;39.10
2100;DHT22;1055;48.854;9.302;2022-08-11T14:31:26;32.50;37.90
2100;DHT22;1055;48.854;9.302;2022-08-11T14:33:56;33.10;38.30
2100;DHT22;1055;48.854;9.302;2022-08-11T14:36:25;33.10;38.50
2100;DHT22;1055;48.854;9.302;2022-08-11T14:38:52;33.50;38.60
2100;DHT22;1055;48.854;9.302;2022-08-11T14:41:19;33.60;37.60
2100;DHT22;1055;48.854;9.302;2022-08-11T14:44:05;33.80;37.40
2100;DHT22;1055;48.854;9.302;2022-08-11T14:46:51;33.10;37.50
2100;DHT22;1055;48.854;9.302;2022-08-11T14:49:33;32.50;37.80
2100;DHT22;1055;48.854;9.302;2022-08-11T14:52:19;32.70;38.60
2100;DHT22;1055;48.854;9.302;2022-08-11T14:54:51;32.90;38.40
2100;DHT22;1055;48.854;9.302;2022-08-11T14:57:38;32.60;38.10
2100;DHT22;1055;48.854;9.302;2022-08-11T15:00:07;33.00;38.40
2100;DHT22;1055;48.854;9.302;2022-08-11T15:02:37;33.50;38.00
2100;DHT22;1055;48.854;9.302;2022-08-11T15:05:24;33.30;37.00
2100;DHT22;1055;48.854;9.302;2022-08-11T15:07:54;33.80;37.00
2100;DHT22;1055;48.854;9.302;2022-08-11T15:10:21;33.80;37.50
2100;DHT22;1055;48.854;9.302;2022-08-11T15:12:47;34.00;36.90
2100;DHT22;1055;48.854;9.302;2022-08-11T15:15:14;34.80;38.10
2100;DHT22;1055;48.854;9.302;2022-08-11T15:18:02;35.10;36.50
2100;DHT22;1055;48.854;9.302;2022-08-11T15:20:30;34.40;36.60
2100;DHT22;1055;48.854;9.302;2022-08-11T15:23:15;34.30;37.00
2100;DHT22;1055;48.854;9.302;2022-08-11T15:29:23;34.50;35.70
2100;DHT22;1055;48.854;9.302;2022-08-11T15:32:09;33.80;36.00
2100;DHT22;1055;48.854;9.302;2022-08-11T15:34:58;34.10;36.10
2100;DHT22;1055;48.854;9.302;2022-08-11T15:37:43;32.60;36.20
2100;DHT22;1055;48.854;9.302;2022-08-11T15:40:12;33.50;37.10
2100;DHT22;1055;48.854;9.302;2022-08-11T15:43:15;34.10;37.20
2100;DHT22;1055;48.854;9.302;2022-08-11T15:46:07;33.80;36.20
2100;DHT22;1055;48.854;9.302;2022-08-11T15:48:43;34.00;36.10
2100;DHT22;1055;48.854;9.302;2022-08-11T15:51:16;33.40;36.30
2100;DHT22;1055;48.854;9.302;2022-08-11T15:53:52;34.20;36.70
2100;DHT22;1055;48.854;9.302;2022-08-11T15:56:22;33.70;36.70
2100;DHT22;1055;48.854;9.302;2022-08-11T15:58:50;34.00;37.10
2100;DHT22;1055;48.854;9.302;2022-08-11T16:01:36;33.50;37.10
2100;DHT22;1055;48.854;9.302;2022-08-11T16:04:24;33.20;36.80
2100;DHT22;1055;48.854;9.302;2022-08-11T16:07:07;33.30;37.20
2100;DHT22;1055;48.854;9.302;2022-08-11T16:09:51;32.60;37.50
2100;DHT22;1055;48.854;9.302;2022-08-11T16:12:20;33.20;37.50
2100;DHT22;1055;48.854;9.302;2022-08-11T16:14:50;33.00;36.70
2100;DHT22;1055;48.854;9.302;2022-08-11T16:17:51;33.20;37.10
2100;DHT22;1055;48.854;9.302;2022-08-11T16:20:23;33.20;36.70
2100;DHT22;1055;48.854;9.302;2022-08-11T16:22:55;32.70;37.30
2100;DHT22;1055;48.854;9.302;2022-08-11T16:25:23;32.50;37.50
2100;DHT22;1055;48.854;9.302;2022-08-11T16:27:56;32.10;37.80
2100;DHT22;1055;48.854;9.302;2022-08-11T16:30:34;32.80;37.60
2100;DHT22;1055;48.854;9.302;2022-08-11T16:33:01;32.30;37.30
2100;DHT22;1055;48.854;9.302;2022-08-11T16:35:31;32.70;37.80
2100;DHT22;1055;48.854;9.302;2022-08-11T16:38:19;33.00;37.70
2100;DHT22;1055;48.854;9.302;2022-08-11T16:41:09;33.40;37.10
2100;DHT22;1055;48.854;9.302;2022-08-11T16:43:41;33.50;37.30
2100;DHT22;1055;48.854;9.302;2022-08-11T16:46:27;33.40;37.20
2100;DHT22;1055;48.854;9.302;2022-08-11T16:49:17;33.40;36.80
2100;DHT22;1055;48.854;9.302;2022-08-11T16:51:44;33.00;37.20
2100;DHT22;1055;48.854;9.302;2022-08-11T16:54:10;32.60;37.10
2100;DHT22;1055;48.854;9.302;2022-08-11T16:56:41;32.80;37.40
2100;DHT22;1055;48.854;9.302;2022-08-11T16:59:14;32.90;38.10
2100;DHT22;1055;48.854;9.302;2022-08-11T17:01:53;32.40;38.40
2100;DHT22;1055;48.854;9.302;2022-08-11T17:04:30;32.50;38.20
2100;DHT22;1055;48.854;9.302;2022-08-11T17:07:19;31.60;38.40
2100;DHT22;1055;48.854;9.302;2022-08-11T17:10:05;31.50;38.50
2100;DHT22;1055;48.854;9.302;2022-08-11T17:12:51;31.70;38.60
2100;DHT22;1055;48.854;9.302;2022-08-11T17:15:40;32.00;39.30
2100;DHT22;1055;48.854;9.302;2022-08-11T17:18:25;31.70;38.70
2100;DHT22;1055;48.854;9.302;2022-08-11T17:21:28;31.80;38.80
2100;DHT22;1055;48.854;9.302;2022-08-11T17:23:53;31.40;38.40
2100;DHT22;1055;48.854;9.302;2022-08-11T17:26:41;31.30;38.70
2100;DHT22;1055;48.854;9.302;2022-08-11T17:29:41;30.80;39.00
2100;DHT22;1055;48.854;9.302;2022-08-11T17:32:14;30.30;39.80
2100;DHT22;1055;48.854;9.302;2022-08-11T17:35:09;30.30;40.60
2100;DHT22;1055;48.854;9.302;2022-08-11T17:38:04;30.70;40.20
2100;DHT22;1055;48.854;9.302;2022-08-11T17:40:38;30.70;40.20
2100;DHT22;1055;48.854;9.302;2022-08-11T17:43:26;30.80;40.20
2100;DHT22;1055;48.854;9.302;2022-08-11T17:46:11;30.50;39.70
2100;DHT22;1055;48.854;9.302;2022-08-11T17:49:00;30.70;40.00
2100;DHT22;1055;48.854;9.302;2022-08-11T17:51:27;30.60;40.10
2100;DHT22;1055;48.854;9.302;2022-08-11T17:54:13;30.70;39.80
2100;DHT22;1055;48.854;9.302;2022-08-11T17:56:58;30.30;40.00
2100;DHT22;1055;48.854;9.302;2022-08-11T17:59:43;30.10;40.60
2100;DHT22;1055;48.854;9.302;2022-08-11T18:05:16;30.10;41.20
2100;DHT22;1055;48.854;9.302;2022-08-11T18:07:45;30.00;40.80
2100;DHT22;1055;48.854;9.302;2022-08-11T18:10:31;30.00;40.80
2100;DHT22;1055;48.854;9.302;2022-08-11T18:13:23;30.10;43.50
2100;DHT22;1055;48.854;9.302;2022-08-11T18:16:09;30.00;42.70
2100;DHT22;1055;48.854;9.302;2022-08-11T18:18:53;29.80;42.20
2100;DHT22;1055;48.854;9.302;2022-08-11T18:21:42;29.50;41.90
2100;DHT22;1055;48.854;9.302;2022-08-11T18:24:30;29.60;42.10
2100;DHT22;1055;48.854;9.302;2022-08-11T18:27:15;29.40;42.30
2100;DHT22;1055;48.854;9.302;2022-08-11T18:30:02;29.20;42.40
2100;DHT22;1055;48.854;9.302;2022-08-11T18:32:48;29.00;42.40
2100;DHT22;1055;48.854;9.302;2022-08-11T18:35:34;29.00;43.00
2100;DHT22;1055;48.854;9.302;2022-08-11T18:38:21;29.10;42.60
2100;DHT22;1055;48.854;9.302;2022-08-11T18:41:09;29.20;43.30
2100;DHT22;1055;48.854;9.302;2022-08-11T18:43:56;28.60;42.70
2100;DHT22;1055;48.854;9.302;2022-08-11T18:46:43;28.70;43.20
2100;DHT22;1055;48.854;9.302;2022-08-11T18:49:34;28.90;43.60
2100;DHT22;1055;48.854;9.302;2022-08-11T18:52:20;29.00;43.50
2100;DHT22;1055;48.854;9.302;2022-08-11T18:55:10;28.80;43.60
2100;DHT22;1055;48.854;9.302;2022-08-11T18:57:59;28.70;43.90
2100;DHT22;1055;48.854;9.302;2022-08-11T19:00:46;28.50;43.80
2100;DHT22;1055;48.854;9.302;2022-08-11T19:03:31;28.20;44.20
2100;DHT22;1055;48.854;9.302;2022-08-11T19:06:18;28.20;44.20
2100;DHT22;1055;48.854;9.302;2022-08-11T19:09:06;28.20;44.30
2100;DHT22;1055;48.854;9.302;2022-08-11T19:11:51;27.90;44.50
2100;DHT22;1055;48.854;9.302;2022-08-11T19:14:37;27.70;44.80
2100;DHT22;1055;48.854;9.302;2022-08-11T19:17:23;27.80;44.60
2100;DHT22;1055;48.854;9.302;2022-08-11T19:20:15;27.60;44.90
2100;DHT22;1055;48.854;9.302;2022-08-11T19:23:01;27.50;45.00
2100;DHT22;1055;48.854;9.302;2022-08-11T19:25:46;27.30;45.20
2100;DHT22;1055;48.854;9.302;2022-08-11T19:28:33;27.20;45.30
2100;DHT22;1055;48.854;9.302;2022-08-11T19:31:18;26.90;45.50
2100;DHT22;1055;48.854;9.302;2022-08-11T19:34:03;26.80;45.50
2100;DHT22;1055;48.854;9.302;2022-08-11T19:36:48;26.50;45.60
2100;DHT22;1055;48.854;9.302;2022-08-11T19:39:34;26.20;46.00
2100;DHT22;1055;48.854;9.302;2022-08-11T19:42:19;25.80;46.40
2100;DHT22;1055;48.854;9.302;2022-08-11T19:45:04;25.80;46.90
2100;DHT22;1055;48.854;9.302;2022-08-11T19:47:49;26.00;46.60
2100;DHT22;1055;48.854;9.302;2022-08-11T19:50:34;26.20;46.60
2100;DHT22;1055;48.854;9.302;2022-08-11T19:53:19;26.20;46.50
2100;DHT22;1055;48.854;9.302;2022-08-11T19:56:06;26.30;46.20
2100;DHT22;1055;48.854;9.302;2022-08-11T19:58:51;26.30;46.10
2100;DHT22;1055;48.854;9.302;2022-08-11T20:01:36;26.00;46.40
2100;DHT22;1055;48.854;9.302;2022-08-11T20:04:20;26.10;46.50
2100;DHT22;1055;48.854;9.302;2022-08-11T20:07:06;26.00;47.00
2100;DHT22;1055;48.854;9.302;2022-08-11T20:09:51;26.10;46.70
2100;DHT22;1055;48.854;9.302;2022-08-11T20:12:37;26.10;47.00
2100;DHT22;1055;48.854;9.302;2022-08-11T20:15:23;26.20;47.60
2100;DHT22;1055;48.854;9.302;2022-08-11T20:18:13;25.90;46.80
2100;DHT22;1055;48.854;9.302;2022-08-11T20:20:59;26.00;47.10
2100;DHT22;1055;48.854;9.302;2022-08-11T20:23:46;25.20;47.20
2100;DHT22;1055;48.854;9.302;2022-08-11T20:26:31;25.20;48.00
2100;DHT22;1055;48.854;9.302;2022-08-11T20:29:18;24.90;48.90
2100;DHT22;1055;48.854;9.302;2022-08-11T20:32:04;25.10;48.30
2100;DHT22;1055;48.854;9.302;2022-08-11T20:34:51;25.30;47.80
2100;DHT22;1055;48.854;9.302;2022-08-11T20:37:38;25.30;47.60
2100;DHT22;1055;48.854;9.302;2022-08-11T20:40:24;24.60;48.80
2100;DHT22;1055;48.854;9.302;2022-08-11T20:43:14;24.80;48.70
2100;DHT22;1055;48.854;9.302;2022-08-11T20:46:04;25.00;48.00
2100;DHT22;1055;48.854;9.302;2022-08-11T20:48:50;25.00;48.20
2100;DHT22;1055;48.854;9.302;2022-08-11T20:51:36;25.10;48.20
2100;DHT22;1055;48.854;9.302;2022-08-11T20:54:22;24.90;48.20
2100;DHT22;1055;48.854;9.302;2022-08-11T20:57:12;25.00;48.50
2100;DHT22;1055;48.854;9.302;2022-08-11T20:59:58;25.10;49.90
2100;DHT22;1055;48.854;9.302;2022-08-11T21:02:44;25.00;50.00
2100;DHT22;1055;48.854;9.302;2022-08-11T21:05:30;24.60;50.70
2100;DHT22;1055;48.854;9.302;2022-08-11T21:08:19;24.60;50.10